Time;durP1;ratioP1;P1;durP2;ratioP2;P2;SDS_P1;SDS_P2;PMS_P1;PMS_P2;Temp;Humidity;BMP_temperature;BMP_pressure;BME280_temperature;BME280_humidity;BME280_pressure;Samples;Min_cycle;Max_cycle;Signal;HPM_P1;HPM_P2
2023/07/02 00:00:51;;;;;;;6.60;6.00;;;17.20;99.90;;;;;;2614880;54;20235;-71
2023/07/02 00:06:40;;;;;;;6.30;5.77;;;17.20;99.90;;;;;;2614942;54;20382;-71
2023/07/02 00:12:27;;;;;;;7.57;6.70;;;17.20;99.90;;;;;;2613950;54;20967;-72
2023/07/02 00:18:16;;;;;;;6.53;5.90;;;17.20;99.90;;;;;;2612702;54;20139;-72
2023/07/02 00:24:04;;;;;;;6.73;6.13;;;17.20;99.90;;;;;;2612747;54;20957;-72
2023/07/02 00:29:51;;;;;;;6.50;5.80;;;17.20;99.90;;;;;;2614217;54;20419;-72
2023/07/02 00:35:39;;;;;;;6.93;6.33;;;17.10;99.90;;;;;;2614862;54;20123;-71
2023/07/02 00:41:27;;;;;;;7.03;6.33;;;17.00;99.90;;;;;;2615212;54;20163;-72
2023/07/02 00:47:16;;;;;;;7.90;7.20;;;17.10;99.90;;;;;;2616190;39;20471;-72
2023/07/02 00:56:32;;;;;;;6.83;6.33;;;17.20;99.90;;;;;;2613938;54;20531;-72
2023/07/02 01:02:19;;;;;;;7.33;6.67;;;17.10;99.90;;;;;;2615471;54;20451;-70
2023/07/02 01:08:07;;;;;;;8.10;7.30;;;17.10;99.90;;;;;;2613701;39;20562;-72
2023/07/02 01:14:01;;;;;;;8.30;7.50;;;17.00;99.90;;;;;;2615430;54;20415;-71
2023/07/02 01:19:54;;;;;;;14.37;7.00;;;16.90;99.90;;;;;;2615480;46;20386;-72
2023/07/02 01:25:44;;;;;;;9.27;7.70;;;16.70;99.90;;;;;;2613323;54;20467;-72
2023/07/02 01:31:33;;;;;;;6.93;6.33;;;16.50;99.90;;;;;;2614666;54;20411;-71
2023/07/02 01:37:21;;;;;;;10.17;7.47;;;16.40;99.90;;;;;;2614286;54;20427;-72
2023/07/02 01:43:09;;;;;;;8.47;7.67;;;16.40;99.90;;;;;;2612694;54;20110;-72
2023/07/02 01:48:56;;;;;;;12.73;7.90;;;16.40;99.90;;;;;;2614171;54;20175;-72
2023/07/02 01:52:00;;;;;;;9.27;7.30;;;16.50;99.90;;;;;;2614717;54;20531;-72
2023/07/02 01:54:27;;;;;;;8.63;6.40;;;16.50;99.90;;;;;;2615301;54;20695;-72
2023/07/02 02:00:15;;;;;;;7.97;7.37;;;16.60;99.90;;;;;;2612786;54;20415;-72
2023/07/02 02:06:03;;;;;;;10.63;7.00;;;16.60;99.90;;;;;;2615037;54;20452;-72
2023/07/02 02:11:52;;;;;;;8.83;6.70;;;16.50;99.90;;;;;;2615422;54;20134;-71
2023/07/02 02:17:40;;;;;;;14.37;8.17;;;16.50;99.90;;;;;;2614962;54;20351;-72
2023/07/02 02:23:28;;;;;;;9.70;8.70;;;16.50;99.90;;;;;;2615439;54;20367;-72
2023/07/02 02:29:16;;;;;;;10.43;8.20;;;16.50;99.90;;;;;;2614257;54;20155;-72
2023/07/02 02:35:04;;;;;;;9.07;8.17;;;16.50;99.90;;;;;;2615210;54;20139;-71
2023/07/02 02:40:51;;;;;;;10.00;9.00;;;16.40;99.90;;;;;;2613923;54;20410;-72
2023/07/02 02:46:39;;;;;;;16.73;10.20;;;16.40;99.90;;;;;;2614438;54;20157;-68
2023/07/02 02:56:32;;;;;;;13.03;11.10;;;16.40;99.90;;;;;;2614489;54;20399;-68
2023/07/02 03:02:20;;;;;;;12.30;10.67;;;16.40;99.90;;;;;;2613813;54;20961;-67
2023/07/02 03:08:08;;;;;;;18.00;13.27;;;16.40;99.90;;;;;;2612712;54;20167;-67
2023/07/02 03:13:55;;;;;;;16.60;10.43;;;16.40;99.90;;;;;;2614529;54;20146;-67
2023/07/02 03:19:43;;;;;;;16.43;11.03;;;16.40;99.90;;;;;;2614229;54;20186;-68
2023/07/02 03:25:31;;;;;;;18.90;12.30;;;16.40;99.90;;;;;;2615046;54;20122;-69
2023/07/02 03:31:18;;;;;;;18.20;12.33;;;16.40;99.90;;;;;;2614621;31;20547;-68
2023/07/02 03:37:07;;;;;;;15.53;11.73;;;16.40;99.90;;;;;;2612808;54;20271;-67
2023/07/02 03:42:55;;;;;;;14.10;12.43;;;16.40;99.90;;;;;;2615252;54;20406;-67
2023/07/02 03:48:43;;;;;;;19.00;13.97;;;16.30;99.90;;;;;;2614871;39;20564;-67
2023/07/02 03:52:00;;;;;;;16.60;13.80;;;16.20;99.90;;;;;;2614296;54;20383;-68
2023/07/02 03:54:25;;;;;;;21.23;13.10;;;16.20;99.90;;;;;;2611788;51;20220;-67
2023/07/02 04:00:13;;;;;;;18.40;13.07;;;16.30;99.90;;;;;;2612952;54;20230;-67
2023/07/02 04:06:01;;;;;;;20.97;13.57;;;16.40;99.90;;;;;;2615134;54;20359;-67
2023/07/02 04:11:49;;;;;;;14.60;12.93;;;16.40;99.90;;;;;;2614776;54;20127;-67
2023/07/02 04:17:37;;;;;;;18.07;12.77;;;16.40;99.90;;;;;;2615104;54;20164;-68
2023/07/02 04:23:25;;;;;;;14.97;12.30;;;16.40;99.90;;;;;;2615386;39;20517;-68
2023/07/02 04:29:13;;;;;;;20.70;13.70;;;16.40;99.90;;;;;;2615545;39;20800;-67
2023/07/02 04:35:01;;;;;;;17.63;13.77;;;16.50;99.90;;;;;;2614866;54;20166;-70
2023/07/02 04:40:51;;;;;;;24.23;15.67;;;16.50;99.90;;;;;;2614533;54;20910;-68
2023/07/02 04:46:39;;;;;;;25.07;16.20;;;16.50;99.90;;;;;;2613136;54;20403;-67
2023/07/02 04:56:33;;;;;;;21.33;14.80;;;16.70;99.90;;;;;;2613612;54;20360;-68
2023/07/02 05:02:20;;;;;;;25.13;15.87;;;16.70;99.90;;;;;;2611824;54;20380;-67
2023/07/02 05:08:08;;;;;;;25.23;16.00;;;16.70;99.90;;;;;;2614296;54;20170;-68
2023/07/02 05:13:56;;;;;;;19.53;15.20;;;16.70;99.90;;;;;;2614142;39;20516;-67
2023/07/02 05:19:44;;;;;;;21.73;16.33;;;16.90;99.90;;;;;;2614004;54;20123;-70
2023/07/02 05:25:33;;;;;;;22.80;18.70;;;17.00;99.90;;;;;;2608513;54;20316;-68
2023/07/02 05:31:21;;;;;;;26.10;16.23;;;17.30;99.90;;;;;;2611308;46;20431;-67
2023/07/02 05:37:09;;;;;;;27.87;17.53;;;17.30;99.90;;;;;;2613405;54;20258;-68
2023/07/02 05:42:57;;;;;;;27.43;17.70;;;17.20;99.90;;;;;;2612781;39;20537;-68
2023/07/02 05:48:44;;;;;;;26.73;18.40;;;17.20;99.90;;;;;;2612980;54;20138;-67
2023/07/02 05:52:00;;;;;;;23.90;16.73;;;17.20;99.90;;;;;;2613286;54;20428;-68
2023/07/02 05:54:25;;;;;;;23.13;17.47;;;17.40;99.90;;;;;;2614719;54;20262;-68
2023/07/02 06:00:13;;;;;;;31.10;19.30;;;17.90;99.90;;;;;;2615169;54;20168;-68
2023/07/02 06:06:01;;;;;;;21.43;17.97;;;17.90;99.90;;;;;;2614339;54;20379;-68
2023/07/02 06:11:49;;;;;;;23.37;16.80;;;17.90;99.90;;;;;;2613511;54;20126;-67
2023/07/02 06:17:36;;;;;;;20.30;18.20;;;17.90;99.90;;;;;;2614496;54;20144;-68
2023/07/02 06:23:24;;;;;;;23.20;20.40;;;18.40;99.90;;;;;;2614145;54;20240;-67
2023/07/02 06:29:12;;;;;;;23.93;19.10;;;18.70;99.90;;;;;;2609914;54;20130;-68
2023/07/02 06:35:00;;;;;;;24.27;21.43;;;18.70;99.90;;;;;;2611603;54;20127;-69
2023/07/02 06:40:48;;;;;;;20.73;18.70;;;18.90;99.90;;;;;;2614041;54;20231;-68
2023/07/02 06:46:35;;;;;;;26.43;18.53;;;19.20;99.90;;;;;;2612332;54;20171;-68
2023/07/02 06:56:32;;;;;;;20.53;17.50;;;18.70;99.90;;;;;;2613605;54;20354;-68
2023/07/02 07:02:20;;;;;;;20.20;18.23;;;19.10;99.90;;;;;;2610575;39;20759;-68
2023/07/02 07:08:08;;;;;;;21.50;19.30;;;20.30;99.90;;;;;;2612047;54;20134;-69
2023/07/02 07:13:55;;;;;;;23.50;19.60;;;20.00;99.90;;;;;;2614460;54;20356;-68
2023/07/02 07:19:43;;;;;;;21.10;19.30;;;19.30;99.90;;;;;;2613760;54;20132;-67
2023/07/02 07:25:31;;;;;;;21.67;19.40;;;19.30;99.90;;;;;;2611749;54;20169;-67
2023/07/02 07:31:18;;;;;;;22.63;20.40;;;19.30;99.90;;;;;;2614900;54;20125;-68
2023/07/02 07:37:06;;;;;;;22.83;20.40;;;19.70;99.90;;;;;;2615055;54;20164;-67
2023/07/02 07:42:53;;;;;;;25.07;22.23;;;19.60;99.90;;;;;;2614894;54;20163;-67
2023/07/02 07:48:41;;;;;;;22.47;20.17;;;19.80;99.90;;;;;;2615065;54;20150;-69
2023/07/02 07:52:00;;;;;;;21.70;19.60;;;19.20;99.90;;;;;;2614567;54;20396;-66
2023/07/02 07:54:25;;;;;;;22.63;18.70;;;19.90;99.90;;;;;;2614932;54;20242;-68
2023/07/02 08:00:14;;;;;;;22.43;20.13;;;19.70;99.90;;;;;;2615157;54;20122;-68
2023/07/02 08:06:01;;;;;;;25.17;21.73;;;19.30;99.90;;;;;;2614766;54;20412;-68
2023/07/02 08:11:49;;;;;;;20.40;18.10;;;19.80;99.90;;;;;;2615040;54;20263;-68
2023/07/02 08:17:36;;;;;;;20.63;18.87;;;19.40;93.90;;;;;;2614740;54;20399;-68
2023/07/02 08:23:23;;;;;;;20.73;18.93;;;19.50;85.40;;;;;;2613205;54;20130;-68
2023/07/02 08:29:11;;;;;;;20.53;18.67;;;19.70;88.00;;;;;;2614583;54;20166;-70
2023/07/02 08:34:59;;;;;;;23.50;21.10;;;19.60;85.20;;;;;;2614218;54;20608;-68
2023/07/02 08:40:48;;;;;;;23.10;18.90;;;19.40;80.50;;;;;;2613727;54;20130;-68
2023/07/02 08:46:36;;;;;;;18.63;16.73;;;20.00;60.90;;;;;;2613579;54;20475;-68
2023/07/02 08:56:32;;;;;;;20.07;18.37;;;20.40;50.20;;;;;;2614050;54;20390;-68
2023/07/02 09:15:35;;;;;;;18.00;16.50;;;19.80;45.60;;;;;;2615828;54;20949;-69
2023/07/02 09:21:27;;;;;;;19.47;17.77;;;19.90;43.00;;;;;;2614474;54;20387;-69
2023/07/02 09:27:14;;;;;;;20.63;19.03;;;20.20;36.60;;;;;;2613362;54;20415;-68
2023/07/02 09:33:08;;;;;;;20.43;18.93;;;20.50;36.70;;;;;;2614046;54;20178;-68
2023/07/02 09:38:56;;;;;;;18.60;17.10;;;21.90;33.70;;;;;;2615191;39;20781;-69
2023/07/02 09:44:45;;;;;;;20.70;18.93;;;22.30;27.50;;;;;;2614383;54;20127;-69
2023/07/02 09:50:32;;;;;;;20.40;18.80;;;21.60;24.40;;;;;;2613831;54;20908;-69
2023/07/02 09:56:21;;;;;;;21.93;19.97;;;21.60;28.10;;;;;;2613693;54;20214;-69
2023/07/02 10:02:10;;;;;;;21.63;19.60;;;20.70;31.00;;;;;;2614844;54;20355;-69
2023/07/02 10:07:58;;;;;;;21.63;19.43;;;19.90;33.60;;;;;;2614529;54;20407;-69
2023/07/02 10:13:46;;;;;;;23.30;20.57;;;20.30;39.40;;;;;;2614962;39;20725;-68
2023/07/02 10:19:33;;;;;;;20.70;19.00;;;19.70;43.80;;;;;;2613863;54;20161;-69
2023/07/02 10:25:29;;;;;;;19.40;17.80;;;19.80;45.50;;;;;;2614387;54;20138;-68
2023/07/02 10:31:20;;;;;;;19.60;17.70;;;19.30;39.40;;;;;;2613651;54;20508;-69
2023/07/02 10:37:07;;;;;;;19.30;17.90;;;19.50;38.70;;;;;;2614377;54;20387;-68
2023/07/02 10:42:56;;;;;;;23.33;19.27;;;20.20;36.30;;;;;;2614157;54;20122;-69
2023/07/02 10:54:57;;;;;;;19.50;18.03;;;22.40;24.40;;;;;;2613368;54;20926;-70
2023/07/02 11:00:47;;;;;;;20.13;18.60;;;21.70;22.40;;;;;;2613208;54;20114;-69
2023/07/02 11:06:34;;;;;;;19.47;18.00;;;21.50;25.10;;;;;;2613305;54;20420;-69
2023/07/02 11:12:30;;;;;;;21.13;18.67;;;21.00;25.70;;;;;;2614147;39;20518;-68
2023/07/02 11:18:21;;;;;;;19.90;18.20;;;20.40;27.80;;;;;;2613796;54;20945;-68
2023/07/02 11:24:09;;;;;;;18.97;17.50;;;20.30;25.90;;;;;;2606992;54;20512;-68
2023/07/02 11:30:00;;;;;;;18.70;17.27;;;20.50;26.00;;;;;;2605270;46;20141;-68
2023/07/02 11:35:48;;;;;;;19.77;18.20;;;21.20;27.40;;;;;;2608669;54;20382;-69
2023/07/02 11:41:40;;;;;;;20.37;18.50;;;21.00;25.10;;;;;;2611602;54;20721;-69
2023/07/02 11:47:28;;;;;;;19.97;18.37;;;22.40;23.60;;;;;;2613681;54;20941;-69
2023/07/02 11:53:16;;;;;;;17.63;16.40;;;21.40;18.40;;;;;;2613323;54;20166;-69
2023/07/02 11:59:03;;;;;;;18.73;17.07;;;21.10;19.20;;;;;;2614012;54;20679;-69
2023/07/02 12:04:51;;;;;;;18.87;17.33;;;21.20;16.10;;;;;;2615271;54;20142;-70
2023/07/02 12:10:40;;;;;;;18.10;16.50;;;21.20;14.60;;;;;;2613436;54;20147;-68
2023/07/02 12:16:28;;;;;;;20.10;17.93;;;20.90;15.20;;;;;;2614426;54;20395;-69
2023/07/02 12:22:17;;;;;;;18.57;17.13;;;21.40;13.50;;;;;;2614374;54;20731;-68
2023/07/02 12:28:05;;;;;;;18.70;17.40;;;22.40;13.10;;;;;;2614379;54;20384;-69
2023/07/02 12:33:53;;;;;;;19.53;17.93;;;22.70;12.30;;;;;;2614058;54;20781;-69
2023/07/02 12:39:41;;;;;;;19.90;18.50;;;23.00;15.50;;;;;;2613747;54;20114;-68
2023/07/02 12:45:28;;;;;;;20.13;18.30;;;22.00;8.90;;;;;;2614713;54;20215;-68
2023/07/02 12:51:16;;;;;;;17.47;16.03;;;24.00;9.50;;;;;;2615344;54;20134;-68
2023/07/02 13:00:36;;;;;;;17.83;16.60;;;22.70;9.70;;;;;;2614486;39;20813;-71
2023/07/02 13:06:24;;;;;;;19.07;17.60;;;22.80;9.20;;;;;;2615637;54;20558;-69
2023/07/02 13:12:12;;;;;;;18.73;17.20;;;22.00;10.60;;;;;;2614661;54;20668;-69
2023/07/02 13:18:00;;;;;;;19.03;17.50;;;22.70;11.40;;;;;;2610062;54;20134;-68
2023/07/02 13:23:48;;;;;;;21.90;19.90;;;23.00;9.50;;;;;;2615034;39;20740;-68
2023/07/02 13:29:36;;;;;;;21.43;19.43;;;23.20;9.30;;;;;;2612950;54;20640;-68
2023/07/02 13:35:23;;;;;;;21.70;20.00;;;22.70;8.60;;;;;;2615050;54;20131;-69
2023/07/02 13:41:11;;;;;;;20.00;18.40;;;22.70;11.70;;;;;;2614861;54;20174;-68
2023/07/02 13:46:58;;;;;;;22.27;19.93;;;22.30;14.20;;;;;;2615077;54;20139;-68
2023/07/02 13:52:46;;;;;;;21.30;19.00;;;22.60;14.00;;;;;;2615452;39;20803;-68
2023/07/02 13:56:02;;;;;;;21.83;19.90;;;22.30;16.10;;;;;;2614774;54;20396;-69
2023/07/02 14:05:12;;;;;;;22.00;20.23;;;23.50;13.00;;;;;;2612453;54;20961;-69
2023/07/02 14:14:21;;;;;;;21.03;19.47;;;23.00;15.60;;;;;;2604926;54;20355;-69
2023/07/02 14:20:09;;;;;;;21.33;19.60;;;22.40;14.00;;;;;;2607464;46;20142;-70
2023/07/02 14:25:56;;;;;;;21.20;19.40;;;23.20;15.50;;;;;;2608421;54;20927;-68
2023/07/02 14:31:43;;;;;;;22.53;20.23;;;23.30;13.30;;;;;;2609361;39;20252;-68
2023/07/02 14:37:31;;;;;;;28.20;24.03;;;23.20;13.30;;;;;;2615089;54;20118;-68
2023/07/02 14:43:19;;;;;;;31.70;29.07;;;23.30;14.10;;;;;;2615184;54;20126;-68
2023/07/02 14:49:07;;;;;;;25.03;22.93;;;22.30;16.00;;;;;;2615063;54;20958;-68
2023/07/02 14:54:56;;;;;;;21.50;19.90;;;22.50;16.60;;;;;;2615147;54;20118;-68
2023/07/02 15:00:45;;;;;;;24.07;21.77;;;22.90;18.90;;;;;;2614631;54;20383;-69
2023/07/02 15:06:33;;;;;;;21.57;19.80;;;23.90;15.00;;;;;;2615449;54;20403;-69
2023/07/02 15:12:20;;;;;;;23.93;21.73;;;22.60;17.00;;;;;;2614901;54;20185;-69
2023/07/02 15:18:09;;;;;;;21.40;20.00;;;23.20;17.10;;;;;;2614667;54;20126;-69
2023/07/02 15:23:56;;;;;;;22.60;20.80;;;23.40;12.30;;;;;;2615361;54;20519;-69
2023/07/02 15:29:44;;;;;;;23.60;21.70;;;21.90;18.10;;;;;;2615136;54;20138;-69
2023/07/02 15:35:32;;;;;;;22.30;20.60;;;22.80;18.70;;;;;;2612556;54;20225;-68
2023/07/02 15:41:21;;;;;;;25.43;23.03;;;22.20;17.90;;;;;;2614840;54;20383;-69
2023/07/02 15:47:09;;;;;;;23.70;22.00;;;23.00;16.30;;;;;;2614956;54;20390;-69
2023/07/02 15:52:57;;;;;;;22.40;20.53;;;22.80;17.50;;;;;;2613408;54;20130;-70
2023/07/02 15:56:02;;;;;;;24.03;21.93;;;22.90;15.40;;;;;;2614888;54;20495;-69
2023/07/02 15:58:29;;;;;;;23.30;21.50;;;22.90;16.70;;;;;;2612859;54;20273;-69
2023/07/02 16:04:17;;;;;;;21.50;19.73;;;22.70;17.00;;;;;;2614826;54;20371;-68
2023/07/02 16:10:05;;;;;;;24.33;22.33;;;22.10;16.50;;;;;;2614209;54;20406;-70
2023/07/02 16:15:53;;;;;;;22.30;20.50;;;22.00;16.30;;;;;;2615129;39;20758;-68
2023/07/02 16:21:42;;;;;;;22.50;20.60;;;22.40;17.70;;;;;;2613350;39;20236;-69
2023/07/02 16:24:45;;;;;;;23.47;21.27;;;23.10;14.50;;;;;;2613439;54;20438;-69
2023/07/02 16:27:13;;;;;;;23.03;21.00;;;23.80;12.60;;;;;;2614830;39;20787;-69
2023/07/02 16:33:01;;;;;;;22.03;20.40;;;22.70;12.50;;;;;;2614630;54;20525;-68
2023/07/02 16:38:50;;;;;;;22.70;21.20;;;22.40;12.60;;;;;;2612034;39;20550;-69
2023/07/02 16:44:38;;;;;;;22.03;20.43;;;21.50;14.50;;;;;;2611890;54;20395;-68
2023/07/02 16:50:26;;;;;;;21.60;20.10;;;21.90;15.80;;;;;;2614831;54;20416;-68
2023/07/02 17:00:34;;;;;;;23.30;20.93;;;22.40;14.90;;;;;;2614253;54;20371;-68
2023/07/02 17:06:22;;;;;;;23.13;21.20;;;22.10;15.00;;;;;;2614537;54;20423;-68
2023/07/02 17:12:13;;;;;;;22.77;20.90;;;22.40;12.20;;;;;;2615067;39;20539;-68
2023/07/02 17:18:01;;;;;;;22.83;20.63;;;22.00;11.90;;;;;;2612859;54;20500;-68
2023/07/02 17:23:49;;;;;;;20.50;19.20;;;22.00;11.60;;;;;;2614218;54;20126;-69
2023/07/02 17:29:37;;;;;;;22.60;20.73;;;22.00;12.70;;;;;;2611203;54;20154;-68
2023/07/02 17:35:25;;;;;;;23.83;21.70;;;21.30;14.40;;;;;;2608102;54;20130;-69
2023/07/02 17:41:14;;;;;;;21.20;19.70;;;21.90;15.70;;;;;;2606261;54;20392;-69
2023/07/02 17:47:06;;;;;;;20.30;18.43;;;21.60;14.10;;;;;;2605665;54;20130;-68
2023/07/02 17:52:53;;;;;;;23.30;21.40;;;21.30;16.10;;;;;;2605949;54;20403;-69
2023/07/02 17:55:59;;;;;;;22.97;21.07;;;21.10;15.00;;;;;;2604697;54;20504;-70
2023/07/02 17:58:25;;;;;;;21.10;19.70;;;21.40;16.20;;;;;;2605307;54;20158;-69
2023/07/02 18:04:13;;;;;;;23.60;21.23;;;21.20;16.10;;;;;;2602581;54;20132;-69
2023/07/02 18:10:01;;;;;;;21.83;20.30;;;21.10;18.20;;;;;;2614630;54;20150;-69
2023/07/02 18:15:50;;;;;;;22.50;20.17;;;21.20;17.90;;;;;;2615418;39;20615;-69
2023/07/02 18:21:37;;;;;;;21.73;20.00;;;21.00;17.10;;;;;;2612238;54;20371;-69
2023/07/02 18:27:25;;;;;;;23.03;21.20;;;20.90;18.60;;;;;;2614974;54;20134;-68
2023/07/02 18:33:13;;;;;;;22.70;21.00;;;20.70;20.50;;;;;;2614964;54;20126;-69
2023/07/02 18:39:01;;;;;;;22.70;20.97;;;20.50;22.40;;;;;;2614573;54;20635;-69
2023/07/02 18:44:49;;;;;;;22.20;20.50;;;20.40;23.90;;;;;;2614867;54;20122;-69
2023/07/02 18:50:38;;;;;;;22.70;21.00;;;20.20;24.90;;;;;;2614127;54;20391;-69
2023/07/02 19:00:35;;;;;;;22.70;20.57;;;20.10;28.30;;;;;;2613814;54;20949;-70
2023/07/02 19:06:22;;;;;;;22.50;20.60;;;20.10;29.70;;;;;;2614487;54;20411;-69
2023/07/02 19:12:10;;;;;;;20.97;19.37;;;19.80;29.00;;;;;;2613670;54;20130;-68
2023/07/02 19:17:57;;;;;;;21.33;19.77;;;19.70;32.00;;;;;;2614537;54;20126;-69
2023/07/02 19:20:42;;;;;;;20.43;19.07;;;19.60;34.20;;;;;;2613034;47;20423;-69
2023/07/02 19:23:07;;;;;;;22.17;20.43;;;19.60;34.60;;;;;;2613665;54;20155;-69
2023/07/02 19:28:56;;;;;;;22.50;21.00;;;19.50;37.90;;;;;;2614381;39;20562;-69
2023/07/02 19:34:47;;;;;;;21.53;20.03;;;19.40;40.00;;;;;;2614130;54;20371;-69
2023/07/02 19:40:34;;;;;;;20.10;18.63;;;19.40;41.20;;;;;;2614077;54;20362;-69
2023/07/02 19:46:22;;;;;;;20.97;19.47;;;19.30;45.30;;;;;;2614442;39;20627;-70
2023/07/02 19:52:12;;;;;;;20.60;19.30;;;19.20;46.10;;;;;;2614429;54;20171;-69
2023/07/02 20:01:23;;;;;;;18.70;17.53;;;19.00;50.80;;;;;;2614749;39;20834;-69
2023/07/02 20:07:12;;;;;;;20.03;18.20;;;18.80;51.80;;;;;;2614701;54;20387;-68
2023/07/02 20:12:59;;;;;;;20.93;19.10;;;18.60;56.80;;;;;;2614766;54;20390;-70
2023/07/02 20:18:48;;;;;;;20.33;18.93;;;18.60;62.00;;;;;;2613384;54;20223;-68
2023/07/02 20:24:36;;;;;;;20.17;18.67;;;18.50;66.10;;;;;;2612313;54;20411;-71
2023/07/02 20:30:23;;;;;;;18.57;17.47;;;18.40;66.40;;;;;;2614922;54;20138;-71
2023/07/02 20:36:14;;;;;;;19.67;18.47;;;18.20;76.00;;;;;;2614028;54;20150;-70
2023/07/02 20:42:04;;;;;;;21.20;19.50;;;18.30;72.00;;;;;;2615166;46;20391;-70
2023/07/02 20:47:52;;;;;;;19.97;18.63;;;18.00;78.40;;;;;;2612265;54;20523;-70
2023/07/02 20:53:39;;;;;;;19.67;18.27;;;17.90;84.80;;;;;;2614846;54;20144;-70
2023/07/02 20:56:49;;;;;;;21.37;19.67;;;17.80;90.40;;;;;;2613564;54;20487;-69
2023/07/02 20:59:14;;;;;;;19.87;18.17;;;17.70;92.80;;;;;;2613568;54;20170;-70
2023/07/02 21:05:02;;;;;;;18.47;17.17;;;17.60;96.50;;;;;;2616313;39;20542;-70
2023/07/02 21:10:50;;;;;;;19.27;17.87;;;17.50;99.90;;;;;;2615519;54;20158;-71
2023/07/02 21:16:37;;;;;;;18.00;16.90;;;17.50;99.90;;;;;;2615776;54;20130;-70
2023/07/02 21:22:27;;;;;;;19.17;18.00;;;17.50;99.90;;;;;;2615570;54;20118;-70
2023/07/02 21:28:19;;;;;;;19.87;18.57;;;17.30;99.90;;;;;;2614014;54;20383;-70
2023/07/02 21:34:07;;;;;;;19.93;18.70;;;17.50;99.90;;;;;;2615188;54;20483;-70
2023/07/02 21:39:55;;;;;;;19.17;17.83;;;17.40;99.90;;;;;;2614732;54;20215;-70
2023/07/02 21:45:43;;;;;;;20.90;19.03;;;17.20;99.90;;;;;;2615989;39;20508;-70
2023/07/02 21:51:30;;;;;;;20.93;19.30;;;17.30;99.90;;;;;;2615390;54;20130;-71
2023/07/02 22:01:17;;;;;;;20.47;18.87;;;17.00;99.90;;;;;;2614294;54;20902;-71
2023/07/02 22:07:05;;;;;;;20.40;18.57;;;16.90;99.90;;;;;;2615336;39;20717;-71
2023/07/02 22:12:53;;;;;;;19.80;18.20;;;17.10;99.90;;;;;;2613582;54;20383;-70
2023/07/02 22:18:41;;;;;;;20.37;18.87;;;17.10;99.90;;;;;;2614605;54;21028;-70
2023/07/02 22:21:44;;;;;;;20.03;18.67;;;17.10;99.90;;;;;;2615110;54;20399;-70
2023/07/02 22:24:11;;;;;;;19.77;18.37;;;17.10;99.90;;;;;;2614615;51;20201;-70
2023/07/02 22:29:59;;;;;;;20.00;18.53;;;17.00;99.90;;;;;;2614064;54;20363;-70
2023/07/02 22:35:47;;;;;;;19.37;17.80;;;16.70;99.90;;;;;;2613448;54;20150;-69
2023/07/02 22:41:34;;;;;;;18.57;17.37;;;16.60;99.90;;;;;;2615163;54;20511;-70
2023/07/02 22:47:22;;;;;;;19.47;17.70;;;16.70;99.90;;;;;;2614562;54;20150;-69
2023/07/02 22:53:09;;;;;;;20.20;18.63;;;16.70;99.90;;;;;;2615037;54;20239;-69
2023/07/02 22:58:58;;;;;;;20.87;19.07;;;16.60;99.90;;;;;;2614272;54;20226;-69
2023/07/02 23:04:46;;;;;;;21.87;18.40;;;16.70;99.90;;;;;;2614090;54;20902;-70
2023/07/02 23:10:34;;;;;;;18.57;16.87;;;16.70;99.90;;;;;;2614880;54;20143;-69
2023/07/02 23:16:21;;;;;;;19.53;18.10;;;16.70;99.90;;;;;;2614837;54;20166;-69
2023/07/02 23:22:10;;;;;;;21.57;19.33;;;16.50;99.90;;;;;;2615411;54;20126;-70
2023/07/02 23:28:02;;;;;;;18.97;17.27;;;16.60;99.90;;;;;;2615295;39;21195;-70
2023/07/02 23:33:50;;;;;;;18.83;17.73;;;16.50;99.90;;;;;;2615204;54;20391;-70
2023/07/02 23:39:38;;;;;;;20.13;18.50;;;16.30;99.90;;;;;;2614997;54;20126;-70
2023/07/02 23:45:25;;;;;;;19.77;18.17;;;16.20;99.90;;;;;;2614951;54;20395;-70
2023/07/02 23:51:13;;;;;;;19.83;18.10;;;16.10;99.90;;;;;;2614854;54;20126;-70
